createdAt,value
2022-09-01T00:01:31.054Z,13.73
2022-09-01T00:04:03.757Z,13.73
2022-09-01T00:06:33.538Z,13.72
2022-09-01T00:09:06.139Z,13.72
2022-09-01T00:11:35.875Z,13.71
2022-09-01T00:14:06.575Z,13.70
2022-09-01T00:16:45.335Z,13.69
2022-09-01T00:19:16.411Z,13.65
2022-09-01T00:21:45.558Z,13.64
2022-09-01T00:24:16.341Z,13.66
2022-09-01T00:26:45.561Z,13.65
2022-09-01T00:29:14.369Z,13.66
2022-09-01T00:31:43.365Z,13.67
2022-09-01T00:34:12.614Z,13.70
2022-09-01T00:36:41.326Z,13.71
2022-09-01T00:39:10.348Z,13.72
2022-09-01T00:41:44.291Z,13.74
2022-09-01T00:44:16.103Z,13.75
2022-09-01T00:46:50.986Z,13.77
2022-09-01T00:49:31.611Z,13.77
2022-09-01T00:52:07.991Z,13.78
2022-09-01T00:54:40.033Z,13.77
2022-09-01T00:57:08.477Z,13.75
2022-09-01T00:59:43.422Z,13.73
2022-09-01T01:02:12.552Z,13.71
2022-09-01T01:04:43.107Z,13.69
2022-09-01T01:07:13.035Z,13.69
2022-09-01T01:09:43.767Z,13.69
2022-09-01T01:12:17.649Z,13.70
2022-09-01T01:14:49.533Z,13.70
2022-09-01T01:17:18.151Z,13.69
2022-09-01T01:20:06.453Z,13.70
2022-09-01T01:23:02.593Z,13.69
2022-09-01T01:25:34.517Z,13.68
2022-09-01T01:28:22.286Z,13.70
2022-09-01T01:30:58.668Z,13.69
2022-09-01T01:33:30.737Z,13.65
2022-09-01T01:36:01.380Z,13.64
2022-09-01T01:38:30.691Z,13.64
2022-09-01T01:41:00.794Z,13.63
2022-09-01T01:43:30.023Z,13.64
2022-09-01T01:46:01.933Z,13.65
2022-09-01T01:48:38.859Z,13.62
2022-09-01T01:51:08.518Z,13.57
2022-09-01T01:53:37.445Z,13.56
2022-09-01T01:56:08.428Z,13.57
2022-09-01T01:58:39.960Z,13.59
2022-09-01T02:01:12.577Z,13.59
2022-09-01T02:03:41.462Z,13.60
2022-09-01T02:06:11.499Z,13.61
2022-09-01T02:08:41.212Z,13.60
2022-09-01T02:11:12.552Z,13.60
2022-09-01T02:13:41.155Z,13.61
2022-09-01T02:16:12.297Z,13.62
2022-09-01T02:18:47.451Z,13.64
2022-09-01T02:21:19.604Z,13.61
2022-09-01T02:23:59.782Z,13.59
2022-09-01T02:26:31.520Z,13.56
2022-09-01T02:29:04.087Z,13.52
2022-09-01T02:31:35.173Z,13.47
2022-09-01T02:34:03.991Z,13.46
2022-09-01T02:36:34.511Z,13.46
2022-09-01T02:39:03.412Z,13.46
2022-09-01T02:41:33.822Z,13.44
2022-09-01T02:44:03.423Z,13.43
2022-09-01T02:46:33.989Z,13.43
2022-09-01T02:49:04.873Z,13.45
2022-09-01T02:51:33.942Z,13.45
2022-09-01T02:54:03.380Z,13.42
2022-09-01T02:56:33.105Z,13.40
2022-09-01T02:59:02.501Z,13.39
2022-09-01T03:01:33.075Z,13.38
2022-09-01T03:04:05.069Z,13.37
2022-09-01T03:06:35.849Z,13.35
2022-09-01T03:09:06.995Z,13.35
2022-09-01T03:11:38.554Z,13.35
2022-09-01T03:14:08.058Z,13.34
2022-09-01T03:16:38.599Z,13.33
2022-09-01T03:19:10.493Z,13.30
2022-09-01T03:21:41.413Z,13.29
2022-09-01T03:24:14.503Z,13.28
2022-09-01T03:26:44.099Z,13.28
2022-09-01T03:29:13.156Z,13.27
2022-09-01T03:31:42.567Z,13.28
2022-09-01T03:34:11.971Z,13.29
2022-09-01T03:36:49.576Z,13.31
2022-09-01T03:39:19.864Z,13.30
2022-09-01T03:41:48.624Z,13.31
2022-09-01T03:44:17.222Z,13.31
2022-09-01T03:46:46.636Z,13.32
2022-09-01T03:49:24.419Z,13.31
2022-09-01T03:51:53.397Z,13.31
2022-09-01T03:54:24.285Z,13.33
2022-09-01T03:56:54.631Z,13.35
2022-09-01T03:59:25.072Z,13.37
2022-09-01T04:01:54.043Z,13.39
2022-09-01T04:04:23.288Z,13.41
2022-09-01T04:06:51.922Z,13.42
2022-09-01T04:09:20.498Z,13.42
2022-09-01T04:11:52.459Z,13.42
2022-09-01T04:14:21.546Z,13.44
2022-09-01T04:17:09.720Z,13.45
2022-09-01T04:19:38.899Z,13.48
2022-09-01T04:22:07.710Z,13.52
2022-09-01T04:24:45.235Z,13.58
2022-09-01T04:27:17.386Z,13.70
2022-09-01T04:29:46.349Z,13.76
2022-09-01T04:32:15.231Z,13.78
2022-09-01T04:34:46.672Z,13.77
2022-09-01T04:37:20.597Z,13.76
2022-09-01T04:39:56.465Z,13.76
2022-09-01T04:42:28.546Z,13.76
2022-09-01T04:44:59.357Z,13.76
2022-09-01T04:47:29.747Z,13.77
2022-09-01T04:50:13.124Z,13.78
2022-09-01T04:52:44.180Z,13.81
2022-09-01T04:55:21.519Z,13.84
2022-09-01T04:57:50.451Z,13.88
2022-09-01T05:00:24.554Z,13.91
2022-09-01T05:03:03.801Z,13.95
2022-09-01T05:05:50.731Z,14.04
2022-09-01T05:08:23.938Z,14.11
2022-09-01T05:10:56.078Z,14.17
2022-09-01T05:13:47.437Z,14.20
2022-09-01T05:16:24.601Z,14.26
2022-09-01T05:18:57.338Z,14.34
2022-09-01T05:21:29.374Z,14.43
2022-09-01T05:24:00.757Z,14.51
2022-09-01T05:26:31.199Z,14.60
2022-09-01T05:29:03.482Z,14.68
2022-09-01T05:31:37.095Z,14.75
2022-09-01T05:34:09.125Z,14.85
2022-09-01T05:36:43.178Z,14.97
2022-09-01T05:39:11.932Z,15.09
2022-09-01T05:41:41.200Z,15.22
2022-09-01T05:44:14.992Z,15.33
2022-09-01T05:46:44.347Z,15.44
2022-09-01T05:49:16.370Z,15.57
2022-09-01T05:51:50.382Z,15.71
2022-09-01T05:54:24.773Z,15.84
2022-09-01T05:56:55.056Z,15.95
2022-09-01T05:59:30.905Z,16.10
2022-09-01T06:02:02.620Z,16.28
2022-09-01T06:04:32.537Z,16.46
2022-09-01T06:07:11.749Z,16.60
2022-09-01T06:09:47.722Z,16.75
2022-09-01T06:12:21.099Z,16.92
2022-09-01T06:14:52.386Z,17.08
2022-09-01T06:17:24.320Z,17.27
2022-09-01T06:19:52.877Z,17.46
2022-09-01T06:22:23.408Z,17.59
2022-09-01T06:24:57.929Z,17.79
2022-09-01T06:27:30.168Z,17.92
2022-09-01T06:29:59.245Z,18.08
2022-09-01T06:32:28.565Z,18.30
2022-09-01T06:34:59.831Z,18.59
2022-09-01T06:37:29.830Z,18.92
2022-09-01T06:40:00.372Z,19.16
2022-09-01T06:42:29.124Z,19.37
2022-09-01T06:45:00.834Z,19.57
2022-09-01T06:47:29.643Z,19.66
2022-09-01T06:49:58.707Z,19.70
2022-09-01T06:52:28.214Z,19.77
2022-09-01T06:54:57.727Z,19.78
2022-09-01T07:00:18.859Z,19.82
2022-09-01T07:02:53.088Z,19.87
2022-09-01T07:06:00.888Z,19.87
2022-09-01T07:14:27.541Z,19.96
2022-09-01T07:19:48.929Z,20.93
2022-09-01T07:25:12.131Z,21.84
2022-09-01T07:27:52.352Z,22.47
2022-09-01T07:30:24.985Z,23.06
2022-09-01T07:32:54.923Z,23.31
2022-09-01T07:35:25.028Z,23.54
2022-09-01T07:42:56.296Z,20.39
2022-09-01T07:43:50.762Z,25.06
2022-09-01T07:46:38.046Z,25.51
2022-09-01T07:51:59.793Z,25.96
2022-09-01T07:54:29.698Z,26.14
2022-09-01T07:56:59.073Z,26.20
2022-09-01T07:59:28.888Z,26.33
2022-09-01T08:02:05.447Z,26.50
2022-09-01T08:04:34.337Z,26.66
2022-09-01T08:07:02.984Z,26.98
2022-09-01T08:09:37.212Z,27.13
2022-09-01T08:12:08.764Z,27.01
2022-09-01T08:14:43.841Z,27.09
2022-09-01T08:20:07.670Z,27.39
2022-09-01T08:23:00.540Z,27.18
2022-09-01T08:25:35.275Z,26.93
2022-09-01T08:28:05.225Z,26.81
2022-09-01T08:30:35.803Z,26.70
2022-09-01T08:33:12.430Z,26.49
2022-09-01T08:35:48.117Z,26.27
2022-09-01T08:38:17.698Z,26.30
2022-09-01T08:40:56.406Z,26.29
2022-09-01T08:43:38.827Z,26.14
2022-09-01T08:46:13.890Z,26.00
2022-09-01T08:51:51.965Z,25.40
2022-09-01T08:54:29.846Z,25.33
2022-09-01T08:57:05.887Z,25.45
2022-09-01T08:59:53.578Z,25.35
2022-09-01T09:02:45.854Z,25.29
2022-09-01T09:05:29.759Z,25.27
2022-09-01T09:08:16.034Z,25.24
2022-09-01T09:10:55.774Z,25.41
2022-09-01T09:13:36.065Z,25.61
2022-09-01T09:16:09.805Z,25.58
2022-09-01T09:18:54.665Z,25.59
2022-09-01T09:21:30.059Z,25.78
2022-09-01T09:24:06.752Z,26.04
2022-09-01T09:26:42.738Z,26.20
2022-09-01T09:29:11.642Z,26.14
2022-09-01T09:31:49.611Z,25.89
2022-09-01T09:34:32.071Z,25.64
2022-09-01T09:37:17.092Z,25.36
2022-09-01T09:39:56.885Z,25.20
2022-09-01T09:42:35.124Z,25.22
2022-09-01T09:45:16.095Z,25.11
2022-09-01T09:47:46.311Z,24.79
2022-09-01T09:50:23.286Z,24.50
2022-09-01T09:52:55.114Z,24.09
2022-09-01T09:55:27.023Z,23.71
2022-09-01T09:57:58.856Z,23.44
2022-09-01T10:00:29.793Z,23.22
2022-09-01T10:03:07.777Z,22.97
2022-09-01T10:05:43.568Z,22.99
2022-09-01T10:08:15.937Z,23.28
2022-09-01T10:10:56.382Z,23.61
2022-09-01T10:13:28.971Z,23.66
2022-09-01T10:15:59.825Z,23.68
2022-09-01T10:18:35.074Z,23.61
2022-09-01T10:21:08.403Z,23.61
2022-09-01T10:23:38.742Z,23.33
2022-09-01T10:26:13.655Z,23.04
2022-09-01T10:28:51.014Z,22.72
2022-09-01T10:31:21.398Z,22.47
2022-09-01T10:33:50.840Z,22.28
2022-09-01T10:36:24.633Z,22.11
2022-09-01T10:38:59.972Z,22.03
2022-09-01T10:41:59.478Z,21.83
2022-09-01T10:44:33.458Z,21.62
2022-09-01T10:47:13.427Z,21.72
2022-09-01T10:49:59.175Z,21.96
2022-09-01T10:53:01.494Z,22.21
2022-09-01T10:55:33.859Z,22.29
2022-09-01T11:01:15.644Z,22.17
2022-09-01T11:03:56.688Z,22.17
2022-09-01T11:09:45.498Z,21.98
2022-09-01T11:12:38.598Z,21.81
2022-09-01T11:15:36.891Z,21.67
2022-09-01T11:18:11.572Z,21.64
2022-09-01T11:20:45.506Z,21.74
2022-09-01T11:23:23.648Z,21.93
2022-09-01T11:28:46.027Z,21.87
2022-09-01T11:31:22.200Z,21.75
2022-09-01T11:33:57.758Z,21.68
2022-09-01T11:36:31.208Z,21.67
2022-09-01T11:39:07.261Z,21.66
2022-09-01T11:41:54.503Z,21.52
2022-09-01T11:44:27.756Z,21.35
2022-09-01T11:47:02.537Z,21.20
2022-09-01T11:49:34.646Z,21.08
2022-09-01T11:52:05.059Z,21.06
2022-09-01T11:54:41.370Z,21.09
2022-09-01T11:57:22.529Z,21.10
2022-09-01T11:59:51.453Z,21.14
2022-09-01T12:02:24.442Z,21.17
2022-09-01T12:04:55.632Z,21.22
2022-09-01T12:07:30.029Z,21.26
2022-09-01T12:09:58.741Z,21.33
2022-09-01T12:12:31.211Z,21.41
2022-09-01T12:15:07.945Z,21.47
2022-09-01T12:17:36.890Z,21.45
2022-09-01T12:20:29.487Z,21.40
2022-09-01T12:23:00.159Z,21.40
2022-09-01T12:25:31.576Z,21.41
2022-09-01T12:28:01.735Z,21.42
2022-09-01T12:30:34.757Z,21.41
2022-09-01T12:36:19.339Z,21.39
2022-09-01T12:38:48.301Z,21.35
2022-09-01T12:41:34.300Z,21.22
2022-09-01T12:44:30.004Z,21.03
2022-09-01T12:47:01.667Z,20.90
2022-09-01T12:49:47.915Z,20.87
2022-09-01T12:52:25.237Z,20.88
2022-09-01T12:55:46.970Z,20.82
2022-09-01T12:58:04.622Z,20.74
2022-09-01T13:00:35.178Z,20.69
2022-09-01T13:03:13.544Z,20.62
2022-09-01T13:05:43.695Z,20.52
2022-09-01T13:08:13.902Z,20.50
2022-09-01T13:10:45.048Z,20.53
2022-09-01T13:13:15.229Z,20.58
2022-09-01T13:15:47.469Z,20.62
2022-09-01T13:18:16.770Z,20.64
2022-09-01T13:20:45.547Z,20.62
2022-09-01T13:23:14.992Z,20.57
2022-09-01T13:25:43.935Z,20.55
2022-09-01T13:28:13.586Z,20.53
2022-09-01T13:30:44.681Z,20.49
2022-09-01T13:33:20.902Z,20.50
2022-09-01T13:35:51.819Z,20.48
2022-09-01T13:38:20.843Z,20.41
2022-09-01T13:40:51.039Z,20.42
2022-09-01T13:43:22.340Z,20.45
2022-09-01T13:45:51.625Z,20.45
2022-09-01T13:48:21.763Z,20.41
2022-09-01T13:51:22.334Z,20.33
2022-09-01T13:53:41.247Z,20.24
2022-09-01T13:56:09.792Z,20.22
2022-09-01T13:58:38.410Z,20.24
2022-09-01T14:01:07.400Z,20.28
2022-09-01T14:03:37.526Z,20.32
2022-09-01T14:06:07.799Z,20.40
2022-09-01T14:08:36.503Z,20.50
2022-09-01T14:11:05.210Z,20.58
2022-09-01T14:13:34.923Z,20.66
2022-09-01T14:16:11.207Z,20.73
2022-09-01T14:18:40.316Z,20.68
2022-09-01T14:21:12.435Z,20.63
2022-09-01T14:23:40.946Z,20.54
2022-09-01T14:26:11.327Z,20.41
2022-09-01T14:28:44.959Z,20.24
2022-09-01T14:31:15.672Z,20.09
2022-09-01T14:33:44.660Z,19.97
2022-09-01T14:36:19.463Z,19.88
2022-09-01T14:38:48.874Z,19.84
2022-09-01T14:41:21.273Z,19.81
2022-09-01T14:43:50.060Z,19.81
2022-09-01T14:46:20.361Z,19.83
2022-09-01T14:48:50.118Z,19.89
2022-09-01T14:51:23.665Z,19.95
2022-09-01T14:53:53.697Z,20.02
2022-09-01T14:56:23.117Z,20.06
2022-09-01T14:58:58.193Z,20.10
2022-09-01T15:01:34.647Z,20.11
2022-09-01T15:04:04.326Z,20.11
2022-09-01T15:06:33.344Z,20.13
2022-09-01T15:09:02.842Z,20.17
2022-09-01T15:11:31.452Z,20.21
2022-09-01T15:14:00.171Z,20.25
2022-09-01T15:16:28.852Z,20.29
2022-09-01T15:18:57.456Z,20.34
2022-09-01T15:21:28.100Z,20.38
2022-09-01T15:23:56.826Z,20.40
2022-09-01T15:26:26.516Z,20.39
2022-09-01T15:28:56.754Z,20.35
2022-09-01T15:31:32.562Z,20.27
2022-09-01T15:34:04.015Z,20.18
2022-09-01T15:36:39.320Z,20.12
2022-09-01T15:39:08.795Z,20.05
2022-09-01T15:41:38.703Z,20.00
2022-09-01T15:44:08.499Z,19.97
2022-09-01T15:46:39.968Z,19.98
2022-09-01T15:49:10.178Z,19.96
2022-09-01T15:51:40.495Z,19.91
2022-09-01T15:54:11.389Z,19.86
2022-09-01T15:56:40.704Z,19.82
2022-09-01T15:59:10.632Z,19.80
2022-09-01T16:01:41.768Z,19.80
2022-09-01T16:04:18.138Z,19.81
2022-09-01T16:06:50.363Z,19.79
2022-09-01T16:09:20.648Z,19.73
2022-09-01T16:11:49.354Z,19.66
2022-09-01T16:14:20.096Z,19.58
2022-09-01T16:16:57.757Z,19.53
2022-09-01T16:19:37.552Z,19.48
2022-09-01T16:22:13.267Z,19.44
2022-09-01T16:24:44.613Z,19.41
2022-09-01T16:27:16.766Z,19.38
2022-09-01T16:29:49.065Z,19.33
2022-09-01T16:32:20.855Z,19.29
2022-09-01T16:34:51.192Z,19.26
2022-09-01T16:37:34.508Z,19.21
2022-09-01T16:40:17.033Z,19.17
2022-09-01T16:42:57.875Z,19.16
2022-09-01T16:45:42.871Z,19.13
2022-09-01T16:48:22.762Z,19.10
2022-09-01T16:51:00.765Z,19.07
2022-09-01T16:53:44.394Z,19.05
2022-09-01T16:56:21.458Z,19.00
2022-09-01T16:58:59.321Z,18.96
2022-09-01T17:01:42.365Z,18.90
2022-09-01T17:04:26.754Z,18.83
2022-09-01T17:07:02.353Z,18.76
2022-09-01T17:09:41.244Z,18.72
2022-09-01T17:12:27.833Z,18.66
2022-09-01T17:14:59.091Z,18.59
2022-09-01T17:17:37.752Z,18.53
2022-09-01T17:20:12.427Z,18.45
2022-09-01T17:22:46.131Z,18.37
2022-09-01T17:25:28.875Z,18.28
2022-09-01T17:28:07.994Z,18.21
2022-09-01T17:30:46.713Z,18.15
2022-09-01T17:33:33.146Z,18.09
2022-09-01T17:36:20.747Z,18.04
2022-09-01T17:39:09.539Z,17.96
2022-09-01T17:41:57.252Z,17.84
2022-09-01T17:44:43.510Z,17.70
2022-09-01T17:47:24.201Z,17.60
2022-09-01T17:50:07.543Z,17.51
2022-09-01T17:52:52.655Z,17.43
2022-09-01T17:55:47.557Z,17.35
2022-09-01T17:58:57.987Z,17.26
2022-09-01T18:01:49.125Z,17.21
2022-09-01T18:05:00.191Z,17.13
2022-09-01T18:08:03.418Z,17.03
2022-09-01T18:10:47.092Z,16.97
2022-09-01T18:13:51.857Z,16.92
2022-09-01T18:16:18.249Z,16.86
2022-09-01T18:18:50.929Z,16.81
2022-09-01T18:21:26.073Z,16.76
2022-09-01T18:24:15.551Z,16.72
2022-09-01T18:26:52.078Z,16.68
2022-09-01T18:29:28.384Z,16.64
2022-09-01T18:32:24.669Z,16.60
2022-09-01T18:35:11.258Z,16.53
2022-09-01T18:37:54.453Z,16.46
2022-09-01T18:40:36.575Z,16.41
2022-09-01T18:43:21.403Z,16.37
2022-09-01T18:46:00.850Z,16.32
2022-09-01T18:49:01.079Z,16.26
2022-09-01T18:51:48.175Z,16.19
2022-09-01T18:54:22.023Z,16.13
2022-09-01T18:56:59.979Z,16.08
2022-09-01T19:00:08.856Z,16.01
2022-09-01T19:03:04.449Z,15.94
2022-09-01T19:06:05.505Z,15.87
2022-09-01T19:08:47.706Z,15.81
2022-09-01T19:11:26.839Z,15.74
2022-09-01T19:14:05.903Z,15.69
2022-09-01T19:16:48.847Z,15.66
2022-09-01T19:19:29.095Z,15.63
2022-09-01T19:21:58.434Z,15.61
2022-09-01T19:24:33.620Z,15.60
2022-09-01T19:27:10.797Z,15.58
2022-09-01T19:29:47.000Z,15.56
2022-09-01T19:32:19.527Z,15.55
2022-09-01T19:34:53.390Z,15.54
2022-09-01T19:37:23.493Z,15.53
2022-09-01T19:39:54.411Z,15.51
2022-09-01T19:42:31.548Z,15.49
2022-09-01T19:45:08.955Z,15.45
2022-09-01T19:47:45.216Z,15.41
2022-09-01T19:50:20.540Z,15.38
2022-09-01T19:52:56.012Z,15.35
2022-09-01T19:55:31.335Z,15.31
2022-09-01T19:58:05.340Z,15.27
2022-09-01T20:00:51.391Z,15.23
2022-09-01T20:03:26.648Z,15.19
2022-09-01T20:05:59.717Z,15.14
2022-09-01T20:08:34.122Z,15.10
2022-09-01T20:11:08.094Z,15.06
2022-09-01T20:13:53.521Z,15.02
2022-09-01T20:16:29.907Z,14.96
2022-09-01T20:19:03.290Z,14.91
2022-09-01T20:21:39.416Z,14.86
2022-09-01T20:24:16.593Z,14.82
2022-09-01T20:26:49.339Z,14.78
2022-09-01T20:29:26.048Z,14.75
2022-09-01T20:31:58.448Z,14.70
2022-09-01T20:34:34.704Z,14.67
2022-09-01T20:37:08.674Z,14.62
2022-09-01T20:40:00.463Z,14.56
2022-09-01T20:42:38.795Z,14.48
2022-09-01T20:45:12.465Z,14.42
2022-09-01T20:47:45.017Z,14.37
2022-09-01T20:50:14.611Z,14.33
2022-09-01T20:53:02.061Z,14.28
2022-09-01T20:55:37.399Z,14.23
2022-09-01T20:58:21.602Z,14.19
2022-09-01T21:00:58.188Z,14.15
2022-09-01T21:03:37.762Z,14.15
2022-09-01T21:06:15.766Z,14.14
2022-09-01T21:08:49.020Z,14.13
2022-09-01T21:11:33.799Z,14.09
2022-09-01T21:14:15.480Z,14.05
2022-09-01T21:16:55.993Z,14.01
2022-09-01T21:19:31.852Z,13.95
2022-09-01T21:22:06.788Z,13.91
2022-09-01T21:24:35.875Z,13.88
2022-09-01T21:27:10.644Z,13.84
2022-09-01T21:29:55.220Z,13.80
2022-09-01T21:32:25.594Z,13.77
2022-09-01T21:34:55.704Z,13.73
2022-09-01T21:37:25.887Z,13.71
2022-09-01T21:39:55.609Z,13.68
2022-09-01T21:42:33.114Z,13.65
2022-09-01T21:45:04.503Z,13.62
2022-09-01T21:47:33.791Z,13.57
2022-09-01T21:50:02.483Z,13.54
2022-09-01T21:52:31.157Z,13.54
2022-09-01T21:54:59.918Z,13.52
2022-09-01T21:57:28.671Z,13.47
2022-09-01T21:59:57.484Z,13.44
2022-09-01T22:02:28.331Z,13.41
2022-09-01T22:04:57.457Z,13.34
2022-09-01T22:07:26.107Z,13.30
2022-09-01T22:09:57.116Z,13.24
2022-09-01T22:12:25.970Z,13.16
2022-09-01T22:14:54.924Z,13.10
2022-09-01T22:17:23.843Z,13.06
2022-09-01T22:19:52.851Z,13.05
2022-09-01T22:22:21.673Z,13.05
2022-09-01T22:24:50.208Z,13.06
2022-09-01T22:27:18.877Z,13.05
2022-09-01T22:29:47.619Z,13.05
2022-09-01T22:32:16.307Z,13.03
2022-09-01T22:34:45.202Z,13.03
2022-09-01T22:37:13.857Z,13.01
2022-09-01T22:39:42.539Z,12.98
2022-09-01T22:42:11.080Z,12.92
2022-09-01T22:44:39.912Z,12.85
2022-09-01T22:47:08.724Z,12.78
2022-09-01T22:49:37.520Z,12.72
2022-09-01T22:52:06.276Z,12.65
2022-09-01T22:54:35.215Z,12.58
2022-09-01T22:57:04.723Z,12.55
2022-09-01T22:59:53.013Z,12.57
2022-09-01T23:02:22.868Z,12.59
2022-09-01T23:04:52.211Z,12.59
2022-09-01T23:07:20.825Z,12.58
2022-09-01T23:09:49.603Z,12.55
2022-09-01T23:12:18.311Z,12.54
2022-09-01T23:14:46.872Z,12.51
2022-09-01T23:17:15.439Z,12.43
2022-09-01T23:19:44.063Z,12.34
2022-09-01T23:22:12.966Z,12.27
2022-09-01T23:24:41.466Z,12.21
2022-09-01T23:27:10.268Z,12.17
2022-09-01T23:29:39.789Z,12.18
2022-09-01T23:32:08.410Z,12.18
2022-09-01T23:34:38.176Z,12.18
2022-09-01T23:37:06.879Z,12.16
2022-09-01T23:39:35.812Z,12.14
2022-09-01T23:42:05.317Z,12.11
2022-09-01T23:44:33.923Z,12.07
2022-09-01T23:47:02.995Z,12.02
2022-09-01T23:49:31.660Z,11.96
2022-09-01T23:52:00.213Z,11.90
2022-09-01T23:54:28.892Z,11.85
2022-09-01T23:56:57.785Z,11.79
2022-09-01T23:59:27.961Z,11.75
